Time;durP1;ratioP1;P1;durP2;ratioP2;P2;SDS_P1;SDS_P2;PMS_P1;PMS_P2;Temp;Humidity;BMP_temperature;BMP_pressure;BME280_temperature;BME280_humidity;BME280_pressure;Samples;Min_cycle;Max_cycle;Signal;HPM_P1;HPM_P2
2023/05/06 00:01:00;;;;;;;7.43;4.05;;;12.80;99.90;;;;;;4992095;28;20038;-87
2023/05/06 00:03:26;;;;;;;7.25;4.03;;;12.70;99.90;;;;;;5007210;28;20040;-87
2023/05/06 00:05:53;;;;;;;8.38;3.90;;;12.70;99.90;;;;;;5008285;28;20518;-87
2023/05/06 00:08:19;;;;;;;7.85;3.80;;;12.60;99.90;;;;;;5009392;28;20045;-87
2023/05/06 00:10:45;;;;;;;10.80;8.45;;;12.60;99.90;;;;;;4991925;28;20044;-87
2023/05/06 00:13:10;;;;;;;7.88;3.33;;;12.60;99.90;;;;;;4992236;28;20042;-87
2023/05/06 00:15:36;;;;;;;5.72;2.70;;;12.60;99.90;;;;;;4992512;28;20042;-87
2023/05/06 00:18:02;;;;;;;8.68;2.75;;;12.50;99.90;;;;;;4992311;28;20038;-87
2023/05/06 00:20:28;;;;;;;6.60;2.17;;;12.40;99.90;;;;;;5005375;28;20504;-86
2023/05/06 00:22:54;;;;;;;7.10;2.67;;;12.30;99.90;;;;;;4973778;28;20393;-87
2023/05/06 00:25:20;;;;;;;5.85;3.30;;;12.30;99.90;;;;;;4983603;28;20044;-87
2023/05/06 00:27:45;;;;;;;6.45;2.08;;;12.30;99.90;;;;;;4992995;28;20041;-86
2023/05/06 00:30:11;;;;;;;21.67;3.22;;;12.20;99.90;;;;;;4991806;28;20108;-87
2023/05/06 00:32:37;;;;;;;7.13;2.17;;;12.20;99.90;;;;;;4992080;28;20042;-87
2023/05/06 00:35:03;;;;;;;5.25;2.20;;;12.10;99.90;;;;;;5009294;28;20068;-87
2023/05/06 00:37:29;;;;;;;6.75;2.45;;;12.10;99.90;;;;;;5007967;28;20029;-87
2023/05/06 00:39:55;;;;;;;4.13;1.65;;;12.10;99.90;;;;;;4992312;28;20041;-87
2023/05/06 00:42:23;;;;;;;3.63;1.40;;;12.00;99.90;;;;;;5008298;28;20045;-87
2023/05/06 00:44:49;;;;;;;3.28;1.20;;;11.90;99.90;;;;;;5009590;28;20053;-87
2023/05/06 00:47:17;;;;;;;2.63;1.20;;;11.90;99.90;;;;;;4992635;28;20099;-87
2023/05/06 00:49:45;;;;;;;3.35;1.33;;;11.80;99.90;;;;;;4992152;28;20053;-87
2023/05/06 00:52:11;;;;;;;5.22;1.90;;;11.70;99.90;;;;;;4992010;28;20423;-87
2023/05/06 00:54:37;;;;;;;6.57;2.53;;;11.60;99.90;;;;;;4991787;28;20038;-87
2023/05/06 00:57:02;;;;;;;5.63;2.30;;;11.60;99.90;;;;;;5008449;28;20045;-87
2023/05/06 00:59:28;;;;;;;3.67;1.60;;;11.60;99.90;;;;;;5007808;28;20033;-87
2023/05/06 01:01:53;;;;;;;4.30;1.80;;;11.60;99.90;;;;;;5008609;28;20046;-87
2023/05/06 01:04:21;;;;;;;4.55;1.90;;;11.60;99.90;;;;;;5009533;28;20046;-87
2023/05/06 01:07:01;;;;;;;6.35;2.80;;;11.60;99.90;;;;;;5008293;28;20041;-87
2023/05/06 01:09:50;;;;;;;7.68;3.33;;;11.60;99.90;;;;;;5009090;28;20527;-87
2023/05/06 01:12:29;;;;;;;7.70;4.85;;;11.60;99.90;;;;;;4991491;28;20080;-87
2023/05/06 01:15:00;;;;;;;8.30;3.80;;;11.70;99.90;;;;;;4992830;28;20037;-87
2023/05/06 01:17:28;;;;;;;7.63;3.58;;;11.60;99.90;;;;;;4991306;28;20042;-87
2023/05/06 01:19:58;;;;;;;8.73;4.10;;;11.60;99.90;;;;;;4991609;28;20491;-87
2023/05/06 01:22:25;;;;;;;9.38;3.75;;;11.60;99.90;;;;;;4992501;28;20380;-87
2023/05/06 01:24:51;;;;;;;7.88;3.45;;;11.50;99.90;;;;;;4991367;28;20507;-87
2023/05/06 01:27:17;;;;;;;6.50;2.80;;;11.50;99.90;;;;;;4996036;28;20029;-87
2023/05/06 01:29:45;;;;;;;6.68;2.75;;;11.50;99.90;;;;;;5011832;28;20041;-87
2023/05/06 01:32:29;;;;;;;7.32;2.88;;;11.50;99.90;;;;;;5012009;28;20046;-87
2023/05/06 01:35:02;;;;;;;7.68;3.60;;;11.50;99.90;;;;;;4994900;28;20057;-88
2023/05/06 01:38:08;;;;;;;9.10;3.95;;;11.50;99.90;;;;;;5012082;28;20053;-87
2023/05/06 01:40:35;;;;;;;8.73;3.95;;;11.50;99.90;;;;;;5011457;28;20046;-87
2023/05/06 01:43:03;;;;;;;8.13;3.47;;;11.50;99.90;;;;;;4995542;28;20451;-87
2023/05/06 01:45:32;;;;;;;7.47;2.97;;;11.50;99.90;;;;;;5012408;28;20763;-87
2023/05/06 01:47:58;;;;;;;8.35;3.50;;;11.50;99.90;;;;;;4995446;28;20045;-87
2023/05/06 01:50:25;;;;;;;9.07;4.05;;;11.50;99.90;;;;;;5012374;28;20373;-87
2023/05/06 01:53:09;;;;;;;9.38;4.65;;;11.50;99.90;;;;;;4994693;28;20091;-87
2023/05/06 01:55:34;;;;;;;8.40;3.30;;;11.50;99.90;;;;;;4994869;28;20120;-87
2023/05/06 01:58:00;;;;;;;8.23;3.72;;;11.50;99.90;;;;;;4995065;28;20125;-87
2023/05/06 02:00:25;;;;;;;7.50;3.67;;;11.50;99.90;;;;;;4994348;28;20499;-87
2023/05/06 02:02:51;;;;;;;10.57;4.50;;;11.50;99.90;;;;;;5011775;28;20053;-87
2023/05/06 02:05:17;;;;;;;8.98;4.65;;;11.40;99.90;;;;;;5011331;28;20061;-87
2023/05/06 02:07:42;;;;;;;10.00;4.72;;;11.30;99.90;;;;;;5011343;28;20049;-87
2023/05/06 02:10:08;;;;;;;11.23;4.15;;;11.30;99.90;;;;;;5010086;28;20037;-87
2023/05/06 02:12:34;;;;;;;9.35;4.18;;;11.20;99.90;;;;;;4995135;28;20042;-87
2023/05/06 02:14:59;;;;;;;9.30;4.68;;;11.20;99.90;;;;;;5010603;28;20042;-87
2023/05/06 02:17:25;;;;;;;7.82;3.63;;;11.10;99.90;;;;;;4994679;28;20042;-87
2023/05/06 02:19:51;;;;;;;8.70;4.07;;;11.10;99.90;;;;;;5011410;28;20104;-87
2023/05/06 02:22:16;;;;;;;10.68;4.20;;;11.10;99.90;;;;;;5010978;28;20041;-87
2023/05/06 02:24:42;;;;;;;10.07;4.03;;;11.10;99.90;;;;;;5011175;28;20467;-87
2023/05/06 02:27:07;;;;;;;9.63;4.13;;;11.00;99.90;;;;;;5011142;28;20042;-87
2023/05/06 02:29:33;;;;;;;10.50;4.07;;;11.10;99.90;;;;;;5009945;28;20038;-87
2023/05/06 02:31:59;;;;;;;8.02;3.47;;;11.10;99.90;;;;;;5011362;28;20053;-87
2023/05/06 02:34:24;;;;;;;8.95;3.60;;;11.00;99.90;;;;;;4994256;28;20036;-87
2023/05/06 02:36:50;;;;;;;8.35;4.10;;;11.00;99.90;;;;;;5010947;28;20042;-87
2023/05/06 02:39:16;;;;;;;8.23;3.83;;;11.00;99.90;;;;;;5010305;28;20108;-87
2023/05/06 02:41:41;;;;;;;13.23;4.60;;;11.00;99.90;;;;;;4993611;28;20026;-87
2023/05/06 02:44:07;;;;;;;12.25;3.85;;;11.00;99.90;;;;;;5011171;28;20558;-87
2023/05/06 02:46:33;;;;;;;8.07;3.47;;;11.00;99.90;;;;;;5010397;28;20038;-87
2023/05/06 02:48:59;;;;;;;8.18;3.85;;;11.00;99.90;;;;;;4994114;28;20035;-87
2023/05/06 02:51:25;;;;;;;9.65;4.18;;;10.90;99.90;;;;;;4974780;28;20467;-87
2023/05/06 02:53:50;;;;;;;7.82;4.07;;;10.90;99.90;;;;;;4987434;28;20136;-87
2023/05/06 02:56:16;;;;;;;7.47;3.70;;;10.90;99.90;;;;;;5010561;28;20042;-87
2023/05/06 02:58:41;;;;;;;7.78;3.55;;;10.90;99.90;;;;;;5006788;28;20038;-87
2023/05/06 03:01:08;;;;;;;7.43;3.58;;;10.90;99.90;;;;;;5007548;28;20046;-87
2023/05/06 03:03:33;;;;;;;11.68;3.33;;;10.90;99.90;;;;;;4993969;28;20080;-88
2023/05/06 03:05:59;;;;;;;6.05;2.20;;;10.80;99.90;;;;;;4995190;28;20039;-87
2023/05/06 03:08:25;;;;;;;6.93;2.40;;;10.60;99.90;;;;;;4991264;28;20591;-88
2023/05/06 03:10:51;;;;;;;11.68;2.78;;;10.50;99.90;;;;;;4984864;28;20149;-87
2023/05/06 03:13:16;;;;;;;5.60;2.13;;;10.40;99.90;;;;;;5010453;28;20037;-87
2023/05/06 03:15:42;;;;;;;6.50;2.95;;;10.30;99.90;;;;;;5010480;28;20496;-87
2023/05/06 03:18:07;;;;;;;6.63;2.92;;;10.20;99.90;;;;;;4984307;28;20635;-88
2023/05/06 03:20:33;;;;;;;9.52;2.53;;;10.20;99.90;;;;;;5023552;28;20049;-87
2023/05/06 03:22:59;;;;;;;17.13;3.38;;;10.20;99.90;;;;;;5009574;28;20529;-87
2023/05/06 03:25:24;;;;;;;9.30;3.05;;;10.10;99.90;;;;;;4993678;28;20408;-88
2023/05/06 03:27:50;;;;;;;7.65;3.10;;;10.10;99.90;;;;;;5006659;28;20088;-87
2023/05/06 03:30:16;;;;;;;11.02;3.35;;;10.00;99.90;;;;;;5002177;28;20042;-87
2023/05/06 03:32:41;;;;;;;10.52;4.65;;;10.10;99.90;;;;;;5023103;28;20049;-87
2023/05/06 03:35:07;;;;;;;9.32;3.70;;;10.10;99.90;;;;;;5025413;28;20030;-87
2023/05/06 03:37:33;;;;;;;11.73;3.97;;;10.10;99.90;;;;;;5009751;28;20547;-87
2023/05/06 03:39:59;;;;;;;78.88;6.95;;;10.10;99.90;;;;;;5008769;28;20030;-87
2023/05/06 03:42:25;;;;;;;30.23;5.38;;;10.10;99.90;;;;;;5008934;28;20511;-87
2023/05/06 03:44:50;;;;;;;16.10;5.28;;;10.10;99.90;;;;;;5009973;28;20050;-87
2023/05/06 03:47:16;;;;;;;31.33;4.72;;;10.10;99.90;;;;;;4992489;28;20514;-87
2023/05/06 03:49:42;;;;;;;37.35;5.55;;;10.10;99.90;;;;;;5009064;28;20065;-88
2023/05/06 03:52:07;;;;;;;82.32;8.88;;;10.10;99.90;;;;;;5009198;28;20523;-87
2023/05/06 03:54:33;;;;;;;43.47;6.50;;;10.10;99.90;;;;;;5009006;28;20046;-87
2023/05/06 03:56:59;;;;;;;17.55;4.93;;;10.10;99.90;;;;;;4992912;28;20036;-87
2023/05/06 03:59:24;;;;;;;18.17;3.80;;;10.10;99.90;;;;;;4993162;28;20034;-87
2023/05/06 04:01:50;;;;;;;11.50;4.00;;;10.10;99.90;;;;;;5009512;28;20092;-88
2023/05/06 04:04:16;;;;;;;67.20;7.00;;;10.10;99.90;;;;;;4993282;28;20048;-87
2023/05/06 04:06:42;;;;;;;9.07;3.92;;;10.10;99.90;;;;;;5009196;28;20124;-88
2023/05/06 04:09:08;;;;;;;41.90;6.18;;;10.10;99.90;;;;;;4994208;28;20034;-87
2023/05/06 04:11:35;;;;;;;9.25;4.13;;;10.10;99.90;;;;;;4992608;28;20128;-87
2023/05/06 04:14:00;;;;;;;16.70;4.10;;;10.10;99.90;;;;;;5009070;28;20525;-87
2023/05/06 04:16:26;;;;;;;26.75;4.68;;;10.10;99.90;;;;;;5008907;28;20129;-87
2023/05/06 04:18:51;;;;;;;12.27;3.95;;;10.20;99.90;;;;;;5005823;28;20069;-87
2023/05/06 04:21:17;;;;;;;29.95;4.85;;;10.20;99.90;;;;;;4989303;28;20049;-87
2023/05/06 04:23:43;;;;;;;11.05;3.85;;;10.10;99.90;;;;;;5004153;28;20041;-88
2023/05/06 04:26:09;;;;;;;8.75;3.97;;;10.10;99.90;;;;;;5008983;28;20042;-88
2023/05/06 04:28:35;;;;;;;11.40;4.00;;;10.20;99.90;;;;;;5008148;28;20056;-87
2023/05/06 04:31:01;;;;;;;7.88;4.05;;;10.20;99.90;;;;;;5009006;28;20047;-88
2023/05/06 04:33:27;;;;;;;11.75;4.00;;;10.20;99.90;;;;;;4992464;28;20037;-87
2023/05/06 04:35:53;;;;;;;10.00;4.07;;;10.20;99.90;;;;;;5008395;28;20096;-87
2023/05/06 04:38:24;;;;;;;7.75;3.90;;;10.20;99.90;;;;;;4992824;28;20129;-88
2023/05/06 04:40:50;;;;;;;8.00;3.70;;;10.20;99.90;;;;;;4992052;28;20455;-88
2023/05/06 04:43:16;;;;;;;10.65;4.75;;;10.20;99.90;;;;;;5009226;28;20180;-87
2023/05/06 04:45:51;;;;;;;8.93;4.57;;;10.20;99.90;;;;;;5009340;28;20062;-87
2023/05/06 04:48:18;;;;;;;10.48;4.88;;;10.30;99.90;;;;;;4992379;28;20086;-88
2023/05/06 04:50:44;;;;;;;7.85;4.00;;;10.30;99.90;;;;;;5008724;28;20124;-87
2023/05/06 04:53:09;;;;;;;8.38;4.40;;;10.30;99.90;;;;;;4991733;28;20045;-88
2023/05/06 04:55:35;;;;;;;9.20;4.63;;;10.40;99.90;;;;;;5008725;28;20046;-87
2023/05/06 04:58:01;;;;;;;9.57;4.20;;;10.40;99.90;;;;;;4992855;28;20042;-87
2023/05/06 05:00:27;;;;;;;9.50;5.10;;;10.40;99.90;;;;;;4991719;28;20038;-87
2023/05/06 05:02:52;;;;;;;8.35;4.28;;;10.40;99.90;;;;;;5012326;28;20466;-87
2023/05/06 05:05:18;;;;;;;8.00;4.18;;;10.50;99.90;;;;;;5009381;28;20073;-87
2023/05/06 05:07:44;;;;;;;8.48;4.85;;;10.50;99.90;;;;;;5028869;28;20124;-87
2023/05/06 05:10:09;;;;;;;8.70;5.05;;;10.50;99.90;;;;;;5012269;28;20463;-87
2023/05/06 05:12:35;;;;;;;9.00;5.25;;;10.50;99.90;;;;;;5011721;28;20108;-87
2023/05/06 05:15:01;;;;;;;8.48;5.07;;;10.60;99.90;;;;;;5012240;28;20384;-87
2023/05/06 05:17:27;;;;;;;11.02;6.70;;;10.60;99.90;;;;;;4996196;28;20054;-87
2023/05/06 05:19:53;;;;;;;14.82;7.32;;;10.70;99.90;;;;;;4984323;28;20038;-87
2023/05/06 05:22:19;;;;;;;14.80;8.98;;;10.70;99.90;;;;;;5025630;28;20030;-86
2023/05/06 05:24:45;;;;;;;12.93;7.65;;;10.70;99.90;;;;;;5012603;28;20096;-87
2023/05/06 05:27:10;;;;;;;13.20;8.13;;;10.70;99.90;;;;;;4996109;28;20041;-87
2023/05/06 05:29:37;;;;;;;16.15;9.45;;;10.80;99.90;;;;;;5012254;28;20050;-87
2023/05/06 05:32:03;;;;;;;17.48;8.75;;;10.90;99.90;;;;;;5011643;28;20053;-87
2023/05/06 05:34:29;;;;;;;19.77;10.15;;;10.90;99.90;;;;;;5011981;28;20041;-87
2023/05/06 05:36:56;;;;;;;26.10;9.40;;;11.00;99.90;;;;;;5012131;28;20045;-87
2023/05/06 05:39:22;;;;;;;24.83;11.27;;;11.10;99.90;;;;;;4995626;28;20038;-87
2023/05/06 05:41:47;;;;;;;26.88;11.60;;;11.20;99.90;;;;;;5011498;28;20048;-87
2023/05/06 05:44:13;;;;;;;24.20;11.45;;;11.20;99.90;;;;;;4993369;28;20038;-87
2023/05/06 05:46:39;;;;;;;28.27;12.80;;;11.30;99.90;;;;;;4994029;28;20403;-87
2023/05/06 05:49:05;;;;;;;25.95;12.00;;;11.30;99.90;;;;;;5003531;28;20046;-87
2023/05/06 05:51:31;;;;;;;30.58;13.07;;;11.40;99.90;;;;;;5008389;28;20038;-86
2023/05/06 05:53:56;;;;;;;20.08;9.77;;;11.50;99.90;;;;;;5011079;28;20131;-87
2023/05/06 05:56:22;;;;;;;22.58;11.70;;;11.50;99.90;;;;;;5011606;28;20042;-87
2023/05/06 05:58:48;;;;;;;22.90;10.63;;;11.60;99.90;;;;;;5011595;28;20073;-87
2023/05/06 06:01:14;;;;;;;20.33;10.23;;;11.60;99.90;;;;;;5011246;28;20042;-88
2023/05/06 06:03:40;;;;;;;22.80;10.93;;;11.70;99.90;;;;;;5011534;28;20084;-87
2023/05/06 06:06:06;;;;;;;20.77;10.70;;;11.70;99.90;;;;;;5011454;28;20171;-87
2023/05/06 06:08:32;;;;;;;20.98;11.20;;;11.80;99.90;;;;;;5011290;28;20677;-87
2023/05/06 06:10:58;;;;;;;21.40;11.75;;;11.90;99.90;;;;;;5011840;28;20037;-87
2023/05/06 06:13:23;;;;;;;24.65;15.32;;;11.90;99.90;;;;;;5009891;28;20034;-87
2023/05/06 06:15:49;;;;;;;18.67;10.88;;;12.00;99.90;;;;;;5011298;28;20125;-87
2023/05/06 06:18:15;;;;;;;21.80;13.48;;;12.10;99.90;;;;;;4994784;28;20582;-87
2023/05/06 06:20:41;;;;;;;24.98;15.73;;;12.20;99.90;;;;;;4994444;28;20710;-87
2023/05/06 06:23:06;;;;;;;22.10;13.25;;;12.30;99.90;;;;;;4994591;28;20064;-87
2023/05/06 06:25:32;;;;;;;28.90;25.25;;;12.40;99.90;;;;;;4994571;28;20038;-87
2023/05/06 06:27:57;;;;;;;24.10;14.65;;;12.50;99.90;;;;;;5007480;28;20509;-87
2023/05/06 06:30:23;;;;;;;30.92;26.95;;;12.60;99.90;;;;;;4975242;28;20702;-87
2023/05/06 06:32:51;;;;;;;24.08;13.93;;;12.70;99.90;;;;;;5001448;28;20128;-87
2023/05/06 06:35:18;;;;;;;26.55;14.98;;;12.80;99.90;;;;;;5010868;28;20034;-87
2023/05/06 06:37:44;;;;;;;29.77;15.50;;;12.80;99.90;;;;;;5010890;28;20049;-87
2023/05/06 06:40:11;;;;;;;27.13;16.55;;;13.00;99.90;;;;;;5009789;28;20030;-87
2023/05/06 06:42:36;;;;;;;30.85;18.33;;;13.10;99.90;;;;;;5011367;28;20061;-87
2023/05/06 06:45:02;;;;;;;29.65;18.83;;;13.20;99.90;;;;;;5010500;28;20495;-87
2023/05/06 06:47:28;;;;;;;32.70;27.58;;;13.30;99.90;;;;;;4993957;28;20053;-88
2023/05/06 06:49:53;;;;;;;30.58;17.50;;;13.50;99.90;;;;;;5010102;28;20029;-87
2023/05/06 06:52:19;;;;;;;33.97;27.27;;;13.60;99.90;;;;;;5009969;28;20454;-88
2023/05/06 06:54:45;;;;;;;33.45;29.10;;;13.70;99.90;;;;;;4994256;28;20042;-87
2023/05/06 06:57:10;;;;;;;28.27;15.38;;;13.90;99.90;;;;;;5009873;28;20129;-88
2023/05/06 06:59:36;;;;;;;27.33;16.23;;;13.90;99.90;;;;;;5010343;28;20523;-87
2023/05/06 07:02:02;;;;;;;29.98;26.38;;;14.00;99.90;;;;;;5010037;28;20038;-87
2023/05/06 07:04:27;;;;;;;26.70;15.20;;;14.10;99.90;;;;;;4990072;28;20038;-88
2023/05/06 07:06:53;;;;;;;30.27;26.17;;;14.20;99.90;;;;;;4992363;28;20116;-88
2023/05/06 07:09:19;;;;;;;31.27;26.52;;;14.30;99.90;;;;;;5010052;28;20133;-88
2023/05/06 07:11:44;;;;;;;26.65;15.23;;;14.40;99.90;;;;;;5009982;28;20061;-87
2023/05/06 07:14:11;;;;;;;24.33;15.93;;;14.50;99.90;;;;;;5009893;28;20037;-87
2023/05/06 07:16:37;;;;;;;30.88;19.73;;;14.50;99.90;;;;;;5009738;28;20125;-88
2023/05/06 07:19:02;;;;;;;30.40;25.90;;;14.60;99.90;;;;;;5010267;28;20470;-87
2023/05/06 07:21:31;;;;;;;26.27;16.20;;;14.70;99.90;;;;;;4993277;28;20037;-87
2023/05/06 07:23:59;;;;;;;27.48;16.95;;;14.70;99.90;;;;;;4993089;28;20411;-87
2023/05/06 07:26:25;;;;;;;27.52;16.70;;;14.70;99.90;;;;;;4993807;28;20416;-88
2023/05/06 07:28:51;;;;;;;28.50;24.38;;;14.80;99.90;;;;;;5009670;28;20530;-87
2023/05/06 07:31:19;;;;;;;27.95;23.77;;;14.90;99.90;;;;;;5010205;28;20141;-88
2023/05/06 07:33:48;;;;;;;23.30;16.17;;;14.90;99.90;;;;;;5004832;28;20120;-87
2023/05/06 07:36:14;;;;;;;27.63;23.50;;;15.00;99.90;;;;;;5026037;28;20037;-88
2023/05/06 07:38:40;;;;;;;24.45;16.30;;;15.00;99.90;;;;;;4993453;28;20092;-87
2023/05/06 07:41:06;;;;;;;26.25;23.15;;;15.00;99.90;;;;;;4992742;28;20034;-87
2023/05/06 07:43:31;;;;;;;23.60;14.95;;;15.10;99.90;;;;;;5009314;28;20092;-87
2023/05/06 07:46:01;;;;;;;27.23;22.17;;;15.20;99.90;;;;;;4993804;28;20045;-88
2023/05/06 07:48:31;;;;;;;29.60;24.02;;;15.30;99.90;;;;;;4992627;28;20056;-88
2023/05/06 07:50:58;;;;;;;28.75;24.33;;;15.50;99.90;;;;;;5009495;28;20096;-88
2023/05/06 07:53:23;;;;;;;30.00;24.75;;;15.60;99.90;;;;;;4993268;28;20045;-88
2023/05/06 07:55:51;;;;;;;28.55;24.17;;;15.70;99.90;;;;;;4993291;28;20056;-87
2023/05/06 07:58:17;;;;;;;27.40;16.58;;;15.80;99.90;;;;;;5009709;28;20088;-88
2023/05/06 08:00:43;;;;;;;29.65;24.60;;;15.90;99.90;;;;;;4992170;28;20038;-87
2023/05/06 08:03:08;;;;;;;28.67;24.27;;;16.00;99.90;;;;;;4993123;28;20091;-88
2023/05/06 08:05:34;;;;;;;26.38;21.67;;;16.20;99.90;;;;;;5008884;28;20030;-87
2023/05/06 08:07:59;;;;;;;27.52;22.13;;;16.30;99.90;;;;;;4993081;28;20196;-88
2023/05/06 08:10:25;;;;;;;28.95;24.58;;;16.40;99.90;;;;;;4973469;28;20034;-88
2023/05/06 08:12:51;;;;;;;26.65;23.35;;;16.50;99.90;;;;;;5009351;28;20062;-88
2023/05/06 08:15:16;;;;;;;27.73;23.25;;;16.50;99.90;;;;;;4992845;28;20041;-88
2023/05/06 08:17:42;;;;;;;28.67;23.83;;;16.60;99.90;;;;;;5009183;28;20048;-88
2023/05/06 08:20:08;;;;;;;26.63;23.30;;;16.60;99.90;;;;;;5008866;28;20510;-88
2023/05/06 08:22:33;;;;;;;26.05;21.60;;;16.70;99.90;;;;;;5008802;28;20053;-88
2023/05/06 08:25:00;;;;;;;27.52;23.27;;;16.80;99.90;;;;;;5008493;28;20042;-88
2023/05/06 08:27:25;;;;;;;26.95;23.45;;;16.90;99.90;;;;;;5009082;28;20046;-88
2023/05/06 08:29:51;;;;;;;28.98;23.52;;;17.00;99.90;;;;;;5008590;28;20038;-88
2023/05/06 08:32:17;;;;;;;26.02;20.58;;;17.10;99.90;;;;;;5009153;28;20042;-88
2023/05/06 08:34:42;;;;;;;24.85;21.15;;;17.10;99.90;;;;;;4992670;28;20041;-88
2023/05/06 08:37:08;;;;;;;28.02;22.10;;;17.20;99.90;;;;;;5008744;28;20489;-88
2023/05/06 08:39:33;;;;;;;30.13;23.08;;;17.20;99.90;;;;;;4992892;28;20053;-88
2023/05/06 08:42:03;;;;;;;24.88;19.40;;;17.20;99.90;;;;;;5008483;28;20088;-88
2023/05/06 08:44:29;;;;;;;27.73;21.45;;;17.20;99.90;;;;;;5009364;28;20054;-89
2023/05/06 08:46:55;;;;;;;26.75;22.38;;;17.30;99.90;;;;;;4992651;28;20034;-88
2023/05/06 08:49:21;;;;;;;29.80;21.40;;;17.30;99.90;;;;;;4973243;28;20483;-88
2023/05/06 08:51:49;;;;;;;24.65;21.77;;;17.40;99.90;;;;;;5022404;28;20045;-88
2023/05/06 08:54:17;;;;;;;28.10;19.75;;;17.50;99.90;;;;;;5024444;28;20065;-88
2023/05/06 08:56:46;;;;;;;24.50;20.98;;;17.50;99.90;;;;;;5008803;28;20716;-88
2023/05/06 08:59:12;;;;;;;26.45;21.40;;;17.70;99.90;;;;;;5009282;28;20050;-88
2023/05/06 09:01:38;;;;;;;27.58;22.27;;;17.70;99.90;;;;;;4981688;28;20042;-88
2023/05/06 09:04:06;;;;;;;27.88;22.05;;;17.80;99.90;;;;;;5005707;28;20050;-88
2023/05/06 09:06:32;;;;;;;27.67;20.95;;;17.80;99.90;;;;;;5008444;28;20088;-88
2023/05/06 09:08:58;;;;;;;22.77;19.15;;;17.90;99.90;;;;;;5008404;28;20519;-88
2023/05/06 09:11:27;;;;;;;24.88;20.63;;;18.00;99.90;;;;;;5007797;28;20034;-88
2023/05/06 09:14:09;;;;;;;24.58;18.88;;;18.10;99.90;;;;;;5008252;28;20053;-88
2023/05/06 09:16:36;;;;;;;23.08;19.38;;;18.10;99.90;;;;;;4992129;28;20049;-88
2023/05/06 09:19:01;;;;;;;25.48;19.40;;;18.30;99.90;;;;;;4992354;28;20076;-88
2023/05/06 09:21:35;;;;;;;22.77;17.95;;;18.40;99.90;;;;;;4991856;28;20049;-88
2023/05/06 09:24:02;;;;;;;26.20;21.02;;;18.50;99.90;;;;;;5007522;28;20049;-88
2023/05/06 09:26:29;;;;;;;23.45;20.42;;;18.50;99.90;;;;;;4991534;28;20038;-88
2023/05/06 09:28:56;;;;;;;20.10;16.23;;;18.60;99.90;;;;;;4991917;28;20034;-88
2023/05/06 09:31:23;;;;;;;20.88;15.32;;;18.60;99.90;;;;;;5007431;28;20036;-89
2023/05/06 09:33:48;;;;;;;19.25;13.98;;;18.60;99.90;;;;;;4991305;28;20042;-88
2023/05/06 09:36:14;;;;;;;15.95;12.48;;;18.60;97.20;;;;;;4992090;28;20038;-88
2023/05/06 09:38:40;;;;;;;18.25;14.35;;;18.70;97.70;;;;;;4979750;28;20034;-89
2023/05/06 09:41:06;;;;;;;18.98;15.52;;;18.80;99.90;;;;;;5021461;28;20038;-88
2023/05/06 09:43:32;;;;;;;19.55;15.30;;;18.80;99.90;;;;;;4988456;28;20045;-88
2023/05/06 09:46:00;;;;;;;17.70;13.90;;;18.90;99.90;;;;;;4972374;28;20424;-89
2023/05/06 09:48:30;;;;;;;19.17;15.98;;;19.10;99.90;;;;;;4981166;28;20030;-88
2023/05/06 09:50:56;;;;;;;18.73;15.85;;;19.20;99.90;;;;;;5008584;28;20111;-88
2023/05/06 09:53:22;;;;;;;19.05;15.13;;;19.40;99.90;;;;;;5011185;28;20065;-88
2023/05/06 09:55:49;;;;;;;19.35;13.18;;;19.40;99.90;;;;;;5011488;28;20034;-89
2023/05/06 09:58:16;;;;;;;17.08;13.05;;;19.50;99.60;;;;;;5011651;28;20096;-88
2023/05/06 10:00:43;;;;;;;17.65;14.75;;;19.60;96.50;;;;;;5010433;28;20036;-88
2023/05/06 10:03:11;;;;;;;17.63;14.50;;;19.70;96.60;;;;;;5011680;28;20092;-88
2023/05/06 10:05:37;;;;;;;17.23;14.63;;;19.70;96.80;;;;;;4994839;28;20061;-89
2023/05/06 10:08:04;;;;;;;16.85;13.63;;;19.60;97.20;;;;;;4994356;28;20048;-89
2023/05/06 10:10:30;;;;;;;16.88;14.15;;;19.50;97.60;;;;;;5011051;28;20034;-88
2023/05/06 10:12:56;;;;;;;15.55;13.07;;;19.50;95.40;;;;;;5011009;28;20046;-88
2023/05/06 10:15:24;;;;;;;16.38;12.65;;;19.40;94.60;;;;;;5011373;28;20025;-88
2023/05/06 10:17:51;;;;;;;16.48;12.68;;;19.40;96.20;;;;;;5010816;28;20460;-88
2023/05/06 10:20:20;;;;;;;15.32;12.25;;;19.30;95.70;;;;;;4994668;28;20034;-88
2023/05/06 10:23:04;;;;;;;14.75;12.43;;;19.40;95.90;;;;;;4994610;28;20046;-88
2023/05/06 10:25:35;;;;;;;13.80;11.15;;;19.40;96.70;;;;;;5011422;28;20080;-88
2023/05/06 10:28:07;;;;;;;13.93;10.30;;;19.60;98.20;;;;;;5010656;28;20096;-88
2023/05/06 10:30:34;;;;;;;12.57;10.40;;;19.70;96.80;;;;;;5010918;28;20625;-88
2023/05/06 10:33:08;;;;;;;14.00;10.98;;;19.90;95.80;;;;;;5010678;28;20038;-88
2023/05/06 10:35:45;;;;;;;13.00;9.88;;;20.00;95.60;;;;;;5011092;28;20038;-88
2023/05/06 10:38:40;;;;;;;13.88;10.73;;;20.20;94.50;;;;;;5010957;28;20503;-88
2023/05/06 10:41:07;;;;;;;14.23;11.50;;;20.30;93.50;;;;;;5002183;28;20066;-86
2023/05/06 10:43:37;;;;;;;14.07;11.07;;;20.30;91.30;;;;;;4975211;28;20462;-86
2023/05/06 10:46:13;;;;;;;16.05;11.50;;;20.50;92.90;;;;;;4991135;28;20518;-86
2023/05/06 10:49:05;;;;;;;16.40;12.23;;;20.70;91.60;;;;;;5010857;28;20046;-86
2023/05/06 10:51:35;;;;;;;15.23;11.75;;;20.80;91.20;;;;;;4994594;28;20133;-86
2023/05/06 10:54:21;;;;;;;15.55;12.23;;;20.80;89.30;;;;;;4993921;28;20046;-87
2023/05/06 10:56:47;;;;;;;15.10;12.07;;;20.80;84.80;;;;;;5012650;28;20495;-86
2023/05/06 10:59:13;;;;;;;15.18;11.55;;;20.80;84.10;;;;;;5002513;28;20038;-86
2023/05/06 11:01:43;;;;;;;17.08;11.55;;;20.80;85.00;;;;;;4994079;28;20034;-86
2023/05/06 11:04:11;;;;;;;14.57;11.10;;;20.80;87.50;;;;;;4994085;28;20499;-86
2023/05/06 11:06:41;;;;;;;15.50;11.68;;;20.90;86.10;;;;;;5010465;28;20523;-86
2023/05/06 11:09:25;;;;;;;14.45;11.68;;;20.90;82.80;;;;;;4994545;28;20499;-86
2023/05/06 11:12:01;;;;;;;16.20;13.27;;;20.90;83.70;;;;;;4986417;28;20049;-86
2023/05/06 11:14:35;;;;;;;15.82;12.93;;;20.90;82.90;;;;;;4994473;28;20042;-86
2023/05/06 11:17:06;;;;;;;16.88;14.07;;;21.00;82.60;;;;;;4993875;28;20042;-86
2023/05/06 11:19:33;;;;;;;17.33;14.70;;;21.00;82.60;;;;;;5010449;28;20127;-86
2023/05/06 11:22:01;;;;;;;16.00;12.88;;;21.00;82.10;;;;;;4993990;28;20034;-86
2023/05/06 11:24:40;;;;;;;16.75;13.88;;;20.90;83.70;;;;;;4993977;28;20034;-86
2023/05/06 11:27:06;;;;;;;15.73;13.40;;;20.90;80.90;;;;;;4994189;28;20049;-86
2023/05/06 11:29:32;;;;;;;17.65;13.65;;;20.80;81.60;;;;;;5009534;28;20037;-86
2023/05/06 11:31:58;;;;;;;18.25;14.13;;;20.80;80.70;;;;;;5010133;28;20416;-86
2023/05/06 11:34:29;;;;;;;15.70;13.25;;;20.70;80.90;;;;;;5010005;28;20034;-86
2023/05/06 11:36:57;;;;;;;17.60;14.30;;;20.60;79.40;;;;;;5009730;28;20045;-86
2023/05/06 11:39:28;;;;;;;16.70;14.43;;;20.60;80.80;;;;;;4993808;28;20080;-86
2023/05/06 11:41:58;;;;;;;16.53;14.73;;;20.70;82.00;;;;;;5010229;28;20030;-86
2023/05/06 11:44:25;;;;;;;16.90;15.13;;;20.90;85.20;;;;;;4993223;28;20048;-86
2023/05/06 11:46:54;;;;;;;16.77;14.88;;;21.00;84.50;;;;;;4993282;28;20049;-86
2023/05/06 11:49:20;;;;;;;16.25;14.52;;;21.10;83.20;;;;;;5010902;28;20403;-86
2023/05/06 11:51:48;;;;;;;16.90;14.38;;;21.10;82.70;;;;;;5006167;28;20546;-86
2023/05/06 11:54:17;;;;;;;15.45;13.18;;;21.10;81.90;;;;;;4990332;28;20451;-86
2023/05/06 11:56:51;;;;;;;19.15;15.88;;;21.10;82.00;;;;;;5002272;28;20046;-86
2023/05/06 11:59:24;;;;;;;15.23;11.63;;;21.20;80.40;;;;;;4994018;28;20133;-86
2023/05/06 12:01:50;;;;;;;16.33;12.40;;;21.30;80.40;;;;;;5010040;28;20561;-87
2023/05/06 12:04:16;;;;;;;13.55;11.27;;;21.50;80.60;;;;;;5006447;28;20042;-87
2023/05/06 12:06:41;;;;;;;14.10;11.98;;;21.60;79.00;;;;;;4974780;28;20045;-86
2023/05/06 12:09:10;;;;;;;14.88;12.45;;;21.60;77.90;;;;;;4991266;28;20080;-86
2023/05/06 12:11:38;;;;;;;13.10;11.70;;;21.60;80.60;;;;;;5009860;28;20038;-86
2023/05/06 12:14:06;;;;;;;15.27;12.48;;;21.50;78.60;;;;;;5009949;28;20125;-87
2023/05/06 12:16:34;;;;;;;14.63;11.60;;;21.40;77.40;;;;;;4993578;28;20503;-86
2023/05/06 12:19:00;;;;;;;13.70;12.10;;;21.40;79.40;;;;;;4993007;28;20566;-86
2023/05/06 12:21:25;;;;;;;14.57;11.68;;;21.30;79.70;;;;;;5009777;28;20547;-86
2023/05/06 12:23:56;;;;;;;13.38;11.77;;;21.30;80.10;;;;;;5006527;28;20136;-86
2023/05/06 12:26:22;;;;;;;13.50;11.63;;;21.30;79.30;;;;;;4973668;28;20121;-87
2023/05/06 12:29:05;;;;;;;14.63;11.60;;;21.20;79.50;;;;;;4975235;28;20129;-86
2023/05/06 12:31:31;;;;;;;15.50;11.70;;;21.10;78.90;;;;;;5007391;28;20080;-86
2023/05/06 12:33:57;;;;;;;14.90;12.25;;;21.10;81.30;;;;;;5010144;28;20078;-86